HEBA/HBE METAR and TAF weather

Enter ICAO airport designator
Station Type Date Time Source
HEBA METAR 2021/07/26 16:00 UTC NOAA

HEBA 261600Z 32009KT CAVOK 28/21 Q1009 NOSIG


Station Type Date Time Source
HEBA Decoded METAR 2021/07/26 16:00 UTC NOAA

Alexandria Borg El Arab, Egypt (HEBA) 31-31N 030-10E
Jul 26, 2021 - 12:00 PM EDT / 2021.07.26 1600 UTC
Wind: from the NW (320 degrees) at 10 MPH (9 KT):0
Visibility: greater than 7 mile(s):0
Temperature: 82 F (28 C)
Dew Point: 69 F (21 C)
Relative Humidity: 65%
Pressure (altimeter): 29.80 in. Hg (1009 hPa)
ob: HEBA 261600Z 32009KT CAVOK 28/21 Q1009 NOSIG
cycle: 16

Station Type Date Time Source
HEBA TAF 2021/07/26 18:36 UTC NOAA

TAF HEBA 261700Z 2618/2724 32011KT 9999 SCT020

Example: see airport list